Time;durP1;ratioP1;P1;durP2;ratioP2;P2;SDS_P1;SDS_P2;PMS_P1;PMS_P2;Temp;Humidity;BMP_temperature;BMP_pressure;BME280_temperature;BME280_humidity;BME280_pressure;Samples;Min_cycle;Max_cycle;Signal;HPM_P1;HPM_P2
2022/06/20 00:02:26;;;;;;;;;;;19.20;99.90;;;;;;5144864;27;20114;-54
2022/06/20 00:05:07;;;;;;;;;;;19.20;99.90;;;;;;5124216;27;19919;-53
2022/06/20 00:07:47;;;;;;;;;;;19.20;99.90;;;;;;5102365;27;19961;-53
2022/06/20 00:10:28;;;;;;;;;;;19.20;99.90;;;;;;5109918;27;19920;-54
2022/06/20 00:13:10;;;;;;;;;;;19.10;99.90;;;;;;5124684;27;19911;-55
2022/06/20 00:15:56;;;;;;;;;;;19.10;99.90;;;;;;5083253;28;19917;-53
2022/06/20 00:18:35;;;;;;;;;;;18.90;99.90;;;;;;5103768;27;19912;-54
2022/06/20 00:21:17;;;;;;;;;;;18.80;99.90;;;;;;5128790;27;20331;-54
2022/06/20 00:23:56;;;;;;;;;;;18.70;99.90;;;;;;5124201;27;19930;-54
2022/06/20 00:26:36;;;;;;;;;;;18.60;99.90;;;;;;5103022;27;19945;-54
2022/06/20 00:29:16;;;;;;;;;;;18.50;99.90;;;;;;5119804;27;19912;-54
2022/06/20 00:31:56;;;;;;;;;;;18.50;99.90;;;;;;5123979;27;19918;-54
2022/06/20 00:34:36;;;;;;;;;;;18.40;99.90;;;;;;5124182;27;19912;-55
2022/06/20 00:37:18;;;;;;;;;;;18.40;99.90;;;;;;5103146;27;19930;-55
2022/06/20 00:39:59;;;;;;;;;;;18.30;99.90;;;;;;5144461;27;19915;-55
2022/06/20 00:42:38;;;;;;;;;;;18.10;99.90;;;;;;5124704;27;19912;-53
2022/06/20 00:45:39;;;;;;;;;;;18.00;99.90;;;;;;5104026;27;19912;-53
2022/06/20 00:48:41;;;;;;;;;;;17.90;99.90;;;;;;5104297;27;19961;-54
2022/06/20 00:51:43;;;;;;;;;;;17.90;99.90;;;;;;5125118;27;19911;-57
2022/06/20 00:54:45;;;;;;;;;;;17.80;99.90;;;;;;5124219;27;19922;-53
2022/06/20 00:57:45;;;;;;;;;;;17.90;99.90;;;;;;5123624;27;20306;-54
2022/06/20 01:00:44;;;;;;;;;;;17.80;99.90;;;;;;5107433;27;20421;-53
2022/06/20 01:03:49;;;;;;;;;;;17.80;99.90;;;;;;5123775;27;19912;-54
2022/06/20 01:06:51;;;;;;;;;;;17.70;99.90;;;;;;5131947;27;19916;-53
2022/06/20 01:09:54;;;;;;;;;;;17.70;99.90;;;;;;5102538;27;19926;-54
2022/06/20 01:12:56;;;;;;;;;;;17.60;99.90;;;;;;5124134;27;19953;-52
2022/06/20 01:15:56;;;;;;;;;;;17.50;99.90;;;;;;5103256;27;19930;-54
2022/06/20 01:18:55;;;;;;;;;;;17.50;99.90;;;;;;5098510;27;20427;-55
2022/06/20 01:21:55;;;;;;;;;;;17.50;99.90;;;;;;5097989;27;20427;-54
2022/06/20 01:24:58;;;;;;;;;;;17.40;99.90;;;;;;5077685;27;19913;-53
2022/06/20 01:27:57;;;;;;;;;;;17.40;99.90;;;;;;5098507;27;19927;-56
2022/06/20 01:30:58;;;;;;;;;;;17.40;99.90;;;;;;5078423;27;19930;-54
2022/06/20 01:33:59;;;;;;;;;;;17.30;99.90;;;;;;5102867;27;20389;-53
2022/06/20 01:40:18;;;;;;;;;;;17.30;99.90;;;;;;5100887;27;19916;-53
2022/06/20 01:43:17;;;;;;;;;;;17.20;99.90;;;;;;5090677;27;19926;-56
2022/06/20 01:46:16;;;;;;;;;;;17.20;99.90;;;;;;5122355;27;19912;-54
2022/06/20 01:49:17;;;;;;;;;;;17.20;99.90;;;;;;5114372;27;19926;-54
2022/06/20 01:52:18;;;;;;;;;;;17.20;99.90;;;;;;5120909;27;19912;-53
2022/06/20 01:55:18;;;;;;;;;;;17.20;99.90;;;;;;5112439;27;19916;-53
2022/06/20 01:58:18;;;;;;;;;;;17.10;99.90;;;;;;5119236;27;19912;-53
2022/06/20 02:01:17;;;;;;;;;;;17.10;99.90;;;;;;5122549;27;19927;-55
2022/06/20 02:04:18;;;;;;;;;;;17.10;99.90;;;;;;5124547;27;19912;-54
2022/06/20 02:07:17;;;;;;;;;;;17.00;99.90;;;;;;5122237;27;19911;-56
2022/06/20 02:10:18;;;;;;;;;;;17.00;99.90;;;;;;5110769;27;19913;-54
2022/06/20 02:13:17;;;;;;;;;;;16.90;99.90;;;;;;5102622;27;19926;-54
2022/06/20 02:16:17;;;;;;;;;;;16.90;99.90;;;;;;5122489;27;20320;-56
2022/06/20 02:19:19;;;;;;;;;;;16.90;99.90;;;;;;5118362;27;20392;-55
2022/06/20 02:22:20;;;;;;;;;;;17.00;99.90;;;;;;5121355;27;19912;-55
2022/06/20 02:25:22;;;;;;;;;;;17.00;99.90;;;;;;5122369;27;19912;-53
2022/06/20 02:28:23;;;;;;;;;;;17.20;99.90;;;;;;5122111;27;19950;-56
2022/06/20 02:31:22;;;;;;;;;;;17.30;99.90;;;;;;5121073;27;19915;-53
2022/06/20 02:34:22;;;;;;;;;;;17.40;99.90;;;;;;5183953;27;20427;-54
2022/06/20 02:37:23;;;;;;;;;;;17.40;99.90;;;;;;5119706;27;20422;-54
2022/06/20 02:40:24;;;;;;;;;;;17.40;99.90;;;;;;5106378;27;19924;-56
2022/06/20 02:43:25;;;;;;;;;;;17.50;99.90;;;;;;5121674;27;19922;-55
2022/06/20 02:46:26;;;;;;;;;;;17.50;99.90;;;;;;5120145;27;19912;-54
2022/06/20 02:49:26;;;;;;;;;;;17.50;99.90;;;;;;5120696;27;19922;-56
2022/06/20 02:52:30;;;;;;;;;;;17.50;99.90;;;;;;5100628;27;20572;-56
2022/06/20 02:55:30;;;;;;;;;;;17.50;99.90;;;;;;5120819;27;20188;-55
2022/06/20 02:58:30;;;;;;;;;;;17.60;99.90;;;;;;5120916;27;19919;-54
2022/06/20 03:01:34;;;;;;;;;;;17.60;99.90;;;;;;5120816;27;19922;-55
2022/06/20 03:04:34;;;;;;;;;;;17.60;99.90;;;;;;5121287;27;20587;-52
2022/06/20 03:07:36;;;;;;;;;;;17.50;99.90;;;;;;5117452;27;19915;-55
2022/06/20 03:10:36;;;;;;;;;;;17.40;99.90;;;;;;5106093;27;19912;-55
2022/06/20 03:13:35;;;;;;;;;;;17.40;99.90;;;;;;5121634;27;20427;-55
2022/06/20 03:16:35;;;;;;;;;;;17.30;99.90;;;;;;5118365;27;19922;-53
2022/06/20 03:19:36;;;;;;;;;;;17.40;99.90;;;;;;5111067;27;19913;-55
2022/06/20 03:22:37;;;;;;;;;;;17.40;99.90;;;;;;5120242;27;19968;-55
2022/06/20 03:25:37;;;;;;;;;;;17.40;99.90;;;;;;5119610;27;19926;-55
2022/06/20 03:28:37;;;;;;;;;;;17.50;99.90;;;;;;5120145;27;19916;-54
2022/06/20 03:31:36;;;;;;;;;;;17.60;99.90;;;;;;5100344;27;19916;-53
2022/06/20 03:34:35;;;;;;;;;;;17.70;99.90;;;;;;5118705;27;19957;-56
2022/06/20 03:37:36;;;;;;;;;;;17.80;99.90;;;;;;5104678;27;20010;-55
2022/06/20 03:40:36;;;;;;;;;;;18.00;99.90;;;;;;5104571;27;19916;-53
2022/06/20 03:43:35;;;;;;;;;;;18.10;99.90;;;;;;5122513;27;19916;-54
2022/06/20 03:46:38;;;;;;;;;;;18.20;99.90;;;;;;5122162;27;20324;-54
2022/06/20 03:49:40;;;;;;;;;;;18.30;99.90;;;;;;5116082;27;19930;-53
2022/06/20 03:52:40;;;;;;;;;;;18.40;99.90;;;;;;5124073;27;20389;-53
2022/06/20 03:55:42;;;;;;;;;;;18.30;99.90;;;;;;5123347;27;20369;-55
2022/06/20 03:58:43;;;;;;;;;;;18.30;99.90;;;;;;5123588;27;19916;-54
2022/06/20 04:01:45;;;;;;;;;;;18.40;99.90;;;;;;5124065;27;19918;-53
2022/06/20 04:04:48;;;;;;;;;;;18.50;99.90;;;;;;5120624;27;19922;-53
2022/06/20 04:07:49;;;;;;;;;;;18.70;99.90;;;;;;5146111;27;19919;-53
2022/06/20 04:11:02;;;;;;;;;;;19.00;99.90;;;;;;5084109;27;19974;-54
2022/06/20 04:14:04;;;;;;;;;;;19.20;99.90;;;;;;5124802;27;19919;-55
2022/06/20 04:18:27;;;;;;;;;;;19.60;99.90;;;;;;5100482;27;20443;-54
2022/06/20 04:20:29;;;;;;;;;;;20.20;99.90;;;;;;5122093;27;19922;-54
2022/06/20 04:23:31;;;;;;;;;;;21.00;99.90;;;;;;5096070;27;19916;-55
2022/06/20 04:26:33;;;;;;;;;;;21.80;99.90;;;;;;5098886;27;20436;-53
2022/06/20 04:29:35;;;;;;;;;;;22.20;99.90;;;;;;5113570;27;20304;-54
2022/06/20 04:32:37;;;;;;;;;;;23.00;99.90;;;;;;5122227;27;19912;-54
2022/06/20 04:35:39;;;;;;;;;;;23.80;99.90;;;;;;5116890;27;20641;-54
2022/06/20 04:38:42;;;;;;;;;;;24.30;99.90;;;;;;5102067;27;19926;-53
2022/06/20 04:41:43;;;;;;;;;;;24.10;99.90;;;;;;5101666;27;20327;-53
2022/06/20 04:44:45;;;;;;;;;;;23.50;99.90;;;;;;5140800;27;20110;-53
2022/06/20 04:47:45;;;;;;;;;;;23.20;99.90;;;;;;5122778;27;19912;-54
2022/06/20 04:50:45;;;;;;;;;;;22.90;99.90;;;;;;5085949;27;19926;-54
2022/06/20 04:53:46;;;;;;;;;;;22.70;99.90;;;;;;5123002;27;19919;-54
2022/06/20 04:56:45;;;;;;;;;;;22.50;99.90;;;;;;5081651;28;19912;-54
2022/06/20 04:59:44;;;;;;;;;;;22.30;99.90;;;;;;5090788;27;19938;-52
2022/06/20 05:02:43;;;;;;;;;;;22.20;99.90;;;;;;5123770;27;19949;-52
2022/06/20 05:05:44;;;;;;;;;;;22.10;99.90;;;;;;5118531;27;19915;-54
2022/06/20 05:08:46;;;;;;;;;;;21.90;99.90;;;;;;5122612;27;19912;-55
2022/06/20 05:11:47;;;;;;;;;;;21.80;99.90;;;;;;5103493;27;19926;-53
2022/06/20 05:14:48;;;;;;;;;;;21.60;99.90;;;;;;5104311;27;19926;-53
2022/06/20 05:17:48;;;;;;;;;;;21.60;99.90;;;;;;5123742;27;19953;-52
2022/06/20 05:20:47;;;;;;;;;;;21.70;99.90;;;;;;5107325;27;19916;-53
2022/06/20 05:23:47;;;;;;;;;;;21.90;99.90;;;;;;5124727;27;19920;-52
2022/06/20 05:26:47;;;;;;;;;;;22.20;99.90;;;;;;5124163;27;19919;-52
2022/06/20 05:29:46;;;;;;;;;;;22.40;99.90;;;;;;5124134;27;19918;-54
2022/06/20 05:32:49;;;;;;;;;;;22.80;99.90;;;;;;5124064;27;19920;-53
2022/06/20 05:35:49;;;;;;;;;;;23.40;99.90;;;;;;5123743;27;20221;-53
2022/06/20 05:38:33;;;;;;;;;;;24.30;99.90;;;;;;5124072;27;19911;-55
2022/06/20 05:41:15;;;;;;;;;;;24.90;99.90;;;;;;5124371;27;20292;-53
2022/06/20 05:43:57;;;;;;;;;;;25.20;99.90;;;;;;5104093;27;19916;-54
2022/06/20 05:46:40;;;;;;;;;;;25.50;99.90;;;;;;5099722;27;19926;-53
2022/06/20 05:49:25;;;;;;;;;;;25.70;99.90;;;;;;5118133;27;19912;-54
2022/06/20 05:52:06;;;;;;;;;;;25.90;99.90;;;;;;5123111;27;19918;-54
2022/06/20 05:54:49;;;;;;;;;;;25.80;99.90;;;;;;5102370;27;20494;-53
2022/06/20 05:57:30;;;;;;;;;;;25.50;99.90;;;;;;5122022;27;19916;-54
2022/06/20 06:00:16;;;;;;;;;;;25.10;99.90;;;;;;5122355;27;19911;-52
2022/06/20 06:03:00;;;;;;;;;;;24.90;99.90;;;;;;5124016;27;19918;-53
2022/06/20 06:05:41;;;;;;;;;;;25.10;99.90;;;;;;5103178;27;20434;-53
2022/06/20 06:08:25;;;;;;;;;;;25.50;99.90;;;;;;5120082;27;19912;-54
2022/06/20 06:11:07;;;;;;;;;;;26.10;99.90;;;;;;5078506;27;19917;-56
2022/06/20 06:13:49;;;;;;;;;;;27.20;99.90;;;;;;5122711;27;19919;-53
2022/06/20 06:16:48;;;;;;;;;;;27.90;99.90;;;;;;5122395;27;19920;-54
2022/06/20 06:19:32;;;;;;;;;;;27.80;99.90;;;;;;5097696;27;19962;-52
2022/06/20 06:22:19;;;;;;;;;;;27.30;99.90;;;;;;5123268;27;19916;-52
2022/06/20 06:25:00;;;;;;;;;;;27.00;99.90;;;;;;5124500;27;19915;-53
2022/06/20 06:27:40;;;;;;;;;;;27.00;99.90;;;;;;5100447;27;19930;-53
2022/06/20 06:30:22;;;;;;;;;;;27.00;99.90;;;;;;5109520;27;19916;-54
2022/06/20 06:33:04;;;;;;;;;;;27.20;99.90;;;;;;5115354;27;19912;-53
2022/06/20 06:35:49;;;;;;;;;;;27.30;99.90;;;;;;5145438;27;19923;-53
2022/06/20 06:38:32;;;;;;;;;;;27.40;99.90;;;;;;5101765;27;20035;-51
2022/06/20 06:41:17;;;;;;;;;;;27.80;99.90;;;;;;5123683;27;19934;-53
2022/06/20 06:43:57;;;;;;;;;;;27.90;99.90;;;;;;5123851;27;19911;-52
2022/06/20 06:46:41;;;;;;;;;;;28.30;98.30;;;;;;5101311;27;19912;-55
2022/06/20 06:49:24;;;;;;;;;;;29.00;92.90;;;;;;5064109;28;19917;-53
2022/06/20 06:52:07;;;;;;;;;;;29.00;90.40;;;;;;5124764;27;19919;-52
2022/06/20 06:54:51;;;;;;;;;;;28.40;93.40;;;;;;5122253;27;19920;-54
2022/06/20 06:57:36;;;;;;;;;;;28.10;97.30;;;;;;5123099;27;19916;-53
2022/06/20 07:00:20;;;;;;;;;;;27.90;99.90;;;;;;5083810;27;20317;-53
2022/06/20 07:03:04;;;;;;;;;;;27.80;99.90;;;;;;5067061;28;19913;-52
2022/06/20 07:05:47;;;;;;;;;;;27.80;99.90;;;;;;5102051;27;19924;-55
2022/06/20 07:08:29;;;;;;;;;;;27.90;99.90;;;;;;5124241;27;19915;-55
2022/06/20 07:11:12;;;;;;;;;;;28.00;99.90;;;;;;5124120;27;20320;-53
2022/06/20 07:13:59;;;;;;;;;;;28.50;99.90;;;;;;5120560;27;19918;-54
2022/06/20 07:16:45;;;;;;;;;;;28.70;99.90;;;;;;5098441;27;20424;-53
2022/06/20 07:19:26;;;;;;;;;;;28.90;99.90;;;;;;5122896;27;19919;-55
2022/06/20 07:22:06;;;;;;;;;;;29.30;89.50;;;;;;5102948;27;20462;-52
2022/06/20 07:24:48;;;;;;;;;;;29.40;71.30;;;;;;5122627;27;19929;-53
2022/06/20 07:27:34;;;;;;;;;;;29.10;69.60;;;;;;5117865;27;19919;-55
2022/06/20 07:30:15;;;;;;;;;;;29.00;72.00;;;;;;5101046;27;19922;-54
2022/06/20 07:32:59;;;;;;;;;;;28.50;73.30;;;;;;5103459;27;19912;-54
2022/06/20 07:35:43;;;;;;;;;;;28.20;75.30;;;;;;5102611;27;19912;-55
2022/06/20 07:38:27;;;;;;;;;;;28.30;79.80;;;;;;5102401;27;19927;-54
2022/06/20 07:41:08;;;;;;;;;;;28.60;83.20;;;;;;5122999;27;20374;-53
2022/06/20 07:43:50;;;;;;;;;;;28.60;80.60;;;;;;5103738;27;20379;-52
2022/06/20 07:46:33;;;;;;;;;;;28.70;72.20;;;;;;5089917;27;19930;-55
2022/06/20 07:49:17;;;;;;;;;;;28.70;66.90;;;;;;5115486;27;19911;-52
2022/06/20 07:51:59;;;;;;;;;;;28.70;70.90;;;;;;5101127;27;19918;-53
2022/06/20 07:54:43;;;;;;;;;;;29.00;65.80;;;;;;5121249;27;19920;-53
2022/06/20 07:57:25;;;;;;;;;;;28.90;63.80;;;;;;5123262;27;19912;-54
2022/06/20 08:00:09;;;;;;;;;;;28.60;70.40;;;;;;5112418;27;20385;-53
2022/06/20 08:02:51;;;;;;;;;;;28.40;72.70;;;;;;5144228;27;19911;-54
2022/06/20 08:05:38;;;;;;;;;;;28.70;66.10;;;;;;5119890;27;20040;-55
2022/06/20 08:08:22;;;;;;;;;;;29.10;63.20;;;;;;5123620;27;20311;-54
2022/06/20 08:11:03;;;;;;;;;;;29.40;61.40;;;;;;5080299;27;20432;-54
2022/06/20 08:13:48;;;;;;;;;;;29.50;58.50;;;;;;5120407;27;19930;-53
2022/06/20 08:16:29;;;;;;;;;;;29.00;58.20;;;;;;5118161;27;19915;-54
2022/06/20 08:19:09;;;;;;;;;;;28.30;60.70;;;;;;5142485;27;19918;-53
2022/06/20 08:21:54;;;;;;;;;;;28.10;64.80;;;;;;5113774;27;19912;-53
2022/06/20 08:24:38;;;;;;;;;;;28.20;64.10;;;;;;5123093;27;20376;-54
2022/06/20 08:27:22;;;;;;;;;;;28.50;70.40;;;;;;5121543;27;20313;-54
2022/06/20 08:30:07;;;;;;;;;;;28.20;67.20;;;;;;5071170;28;19931;-54
2022/06/20 08:32:55;;;;;;;;;;;27.70;62.60;;;;;;5124110;27;19916;-54
2022/06/20 08:35:40;;;;;;;;;;;27.40;71.40;;;;;;5103651;27;19923;-54
2022/06/20 08:38:23;;;;;;;;;;;27.60;71.10;;;;;;5124758;27;20403;-53
2022/06/20 08:41:19;;;;;;;;;;;27.90;72.60;;;;;;5123968;27;19919;-54
2022/06/20 08:44:20;;;;;;;;;;;28.20;76.70;;;;;;5103441;27;19916;-53
2022/06/20 08:47:18;;;;;;;;;;;28.20;65.00;;;;;;5103024;27;19926;-52
2022/06/20 08:50:18;;;;;;;;;;;27.90;77.70;;;;;;5114696;27;19930;-54
2022/06/20 08:53:07;;;;;;;;;;;27.70;81.50;;;;;;5083919;28;19913;-53
2022/06/20 08:56:02;;;;;;;;;;;27.90;79.30;;;;;;5123851;27;19911;-54
2022/06/20 08:58:49;;;;;;;;;;;28.10;74.90;;;;;;5124609;27;19912;-54
2022/06/20 09:01:31;;;;;;;;;;;28.20;74.60;;;;;;5124024;27;19912;-54
2022/06/20 09:04:32;;;;;;;;;;;27.70;79.90;;;;;;5084041;28;19926;-54
2022/06/20 09:07:26;;;;;;;;;;;27.20;95.00;;;;;;5144131;27;19918;-54
2022/06/20 09:10:31;;;;;;;;;;;26.50;97.30;;;;;;5092584;27;20356;-54
2022/06/20 09:13:28;;;;;;;;;;;26.00;99.90;;;;;;5104025;27;19974;-54
2022/06/20 09:16:13;;;;;;;;;;;25.30;99.90;;;;;;5102989;27;20582;-54
2022/06/20 09:19:01;;;;;;;;;;;24.70;99.90;;;;;;5123728;27;19912;-54
2022/06/20 09:21:43;;;;;;;;;;;24.50;99.90;;;;;;5103199;27;19926;-54
2022/06/20 09:24:29;;;;;;;;;;;24.50;99.90;;;;;;5104168;27;19926;-54
2022/06/20 09:27:11;;;;;;;;;;;24.60;99.90;;;;;;5102489;27;19926;-54
2022/06/20 09:30:02;;;;;;;;;;;24.60;99.90;;;;;;5112270;27;19912;-54
2022/06/20 09:33:15;;;;;;;;;;;24.50;99.90;;;;;;5124305;27;19912;-54
2022/06/20 09:36:06;;;;;;;;;;;24.30;99.90;;;;;;5123953;27;20336;-54
2022/06/20 09:38:58;;;;;;;;;;;24.10;99.90;;;;;;5123993;27;19916;-54
2022/06/20 09:41:43;;;;;;;;;;;24.00;99.90;;;;;;5082756;28;20317;-54
2022/06/20 09:44:29;;;;;;;;;;;23.70;99.90;;;;;;5100593;27;19926;-54
2022/06/20 09:47:18;;;;;;;;;;;23.50;99.90;;;;;;5099323;27;20439;-54
2022/06/20 09:50:04;;;;;;;;;;;23.40;99.90;;;;;;5055574;28;19917;-54
2022/06/20 09:52:51;;;;;;;;;;;23.50;99.90;;;;;;5123197;27;20378;-54
2022/06/20 09:55:35;;;;;;;;;;;23.90;99.90;;;;;;5123928;27;19916;-53
2022/06/20 09:58:19;;;;;;;;;;;24.40;99.90;;;;;;5103488;27;19926;-54
2022/06/20 10:01:04;;;;;;;;;;;25.20;99.90;;;;;;5123943;27;20120;-54
2022/06/20 10:03:48;;;;;;;;;;;25.50;99.90;;;;;;5125198;27;19924;-53
2022/06/20 10:06:35;;;;;;;;;;;25.60;99.90;;;;;;5123870;27;20261;-54
2022/06/20 10:09:21;;;;;;;;;;;25.90;99.90;;;;;;5098521;27;19946;-54
2022/06/20 10:12:06;;;;;;;;;;;26.20;99.90;;;;;;5124005;27;19926;-54
2022/06/20 10:14:50;;;;;;;;;;;26.00;99.90;;;;;;5103325;27;19953;-53
2022/06/20 10:17:37;;;;;;;;;;;26.00;99.90;;;;;;5122661;27;19918;-53
2022/06/20 10:20:23;;;;;;;;;;;26.50;99.90;;;;;;5091225;27;19912;-53
2022/06/20 10:23:23;;;;;;;;;;;27.20;99.90;;;;;;5123749;27;19930;-54
2022/06/20 10:26:17;;;;;;;;;;;27.10;99.90;;;;;;5123318;27;19920;-53
2022/06/20 10:29:02;;;;;;;;;;;27.10;99.90;;;;;;5123683;27;20331;-54
2022/06/20 10:31:44;;;;;;;;;;;27.50;99.90;;;;;;5103105;27;19912;-54
2022/06/20 10:34:36;;;;;;;;;;;27.80;99.90;;;;;;5103686;27;19912;-54
2022/06/20 10:37:24;;;;;;;;;;;27.80;99.90;;;;;;5102498;27;20419;-53
2022/06/20 10:40:14;;;;;;;;;;;27.70;99.90;;;;;;5100419;27;19912;-53
2022/06/20 10:43:00;;;;;;;;;;;27.90;99.90;;;;;;5094563;27;19912;-54
2022/06/20 10:45:46;;;;;;;;;;;27.90;99.90;;;;;;5080406;28;19920;-54
2022/06/20 10:48:35;;;;;;;;;;;27.80;99.90;;;;;;5080218;28;20011;-53
2022/06/20 10:51:17;;;;;;;;;;;27.80;99.90;;;;;;5082214;27;19916;-54
2022/06/20 10:54:03;;;;;;;;;;;27.80;99.90;;;;;;5133881;27;19919;-54
2022/06/20 10:56:49;;;;;;;;;;;27.90;99.90;;;;;;5096581;27;19966;-54
2022/06/20 10:59:36;;;;;;;;;;;27.90;99.90;;;;;;5123557;27;19911;-54
2022/06/20 11:02:26;;;;;;;;;;;27.90;99.90;;;;;;5123346;27;19912;-54
2022/06/20 11:05:16;;;;;;;;;;;27.80;99.90;;;;;;5082120;28;19913;-53
2022/06/20 11:08:00;;;;;;;;;;;28.00;99.90;;;;;;5121607;27;19912;-53
2022/06/20 11:10:49;;;;;;;;;;;28.20;99.90;;;;;;5087717;27;19926;-54
2022/06/20 11:13:33;;;;;;;;;;;28.30;96.90;;;;;;5103820;27;19912;-54
2022/06/20 11:16:19;;;;;;;;;;;28.40;93.90;;;;;;5096709;27;19916;-54
2022/06/20 11:19:10;;;;;;;;;;;28.70;95.40;;;;;;5121474;27;19915;-54
2022/06/20 11:21:57;;;;;;;;;;;29.10;85.80;;;;;;5102861;27;19926;-54
2022/06/20 11:24:41;;;;;;;;;;;29.30;87.30;;;;;;5123160;27;20323;-53
2022/06/20 11:27:29;;;;;;;;;;;29.60;77.10;;;;;;5122740;27;19915;-55
2022/06/20 11:30:18;;;;;;;;;;;29.80;68.10;;;;;;5091385;27;19912;-53
2022/06/20 11:33:11;;;;;;;;;;;30.10;64.50;;;;;;5123694;27;19918;-53
2022/06/20 11:35:55;;;;;;;;;;;31.00;58.10;;;;;;5122039;27;19916;-53
2022/06/20 11:38:45;;;;;;;;;;;31.40;56.70;;;;;;5122752;27;19923;-54
2022/06/20 11:41:35;;;;;;;;;;;31.40;55.90;;;;;;5122949;27;19923;-53
2022/06/20 11:44:20;;;;;;;;;;;30.80;55.20;;;;;;5102250;27;20324;-53
2022/06/20 11:47:10;;;;;;;;;;;30.30;56.60;;;;;;5141305;27;20380;-53
2022/06/20 11:50:02;;;;;;;;;;;29.80;57.10;;;;;;5114881;27;19912;-54
2022/06/20 11:52:48;;;;;;;;;;;29.60;58.60;;;;;;5123021;27;19915;-54
2022/06/20 11:55:34;;;;;;;;;;;30.00;60.90;;;;;;5147501;27;19915;-53
2022/06/20 11:58:17;;;;;;;;;;;30.20;60.10;;;;;;5123378;27;19922;-53
2022/06/20 12:01:00;;;;;;;;;;;30.30;58.80;;;;;;5104211;27;19912;-54
2022/06/20 12:03:43;;;;;;;;;;;30.90;57.50;;;;;;5123820;27;19916;-53
2022/06/20 12:06:25;;;;;;;;;;;31.40;56.50;;;;;;5151569;27;19911;-53
2022/06/20 12:09:07;;;;;;;;;;;31.30;53.80;;;;;;5123501;27;19920;-54
2022/06/20 12:11:56;;;;;;;;;;;31.60;53.00;;;;;;5122817;27;19923;-54
2022/06/20 12:14:40;;;;;;;;;;;31.90;50.00;;;;;;5123670;27;19912;-54
2022/06/20 12:17:27;;;;;;;;;;;32.20;49.40;;;;;;5101662;27;19918;-55
2022/06/20 12:23:26;;;;;;;;;;;30.70;50.20;;;;;;5123861;27;19931;-55
2022/06/20 12:26:08;;;;;;;;;;;30.00;52.30;;;;;;5122671;27;19915;-55
2022/06/20 12:28:49;;;;;;;;;;;30.00;53.10;;;;;;5123080;27;19920;-54
2022/06/20 12:31:31;;;;;;;;;;;29.90;53.10;;;;;;5121719;27;19912;-54
2022/06/20 12:34:29;;;;;;;;;;;29.70;52.20;;;;;;5123672;27;19912;-53
2022/06/20 12:37:15;;;;;;;;;;;30.20;52.80;;;;;;5114307;27;19916;-54
2022/06/20 12:40:02;;;;;;;;;;;30.50;49.80;;;;;;5101399;27;19916;-54
2022/06/20 12:42:48;;;;;;;;;;;30.70;48.10;;;;;;5102440;27;20323;-54
2022/06/20 12:45:41;;;;;;;;;;;31.20;45.30;;;;;;5101640;27;19912;-54
2022/06/20 12:48:27;;;;;;;;;;;31.40;44.90;;;;;;5123061;27;19912;-55
2022/06/20 12:51:12;;;;;;;;;;;31.00;45.40;;;;;;5061183;28;19921;-54
2022/06/20 12:53:59;;;;;;;;;;;30.40;45.00;;;;;;5121417;27;20358;-53
2022/06/20 12:56:49;;;;;;;;;;;29.80;46.20;;;;;;5101524;27;19926;-53
2022/06/20 12:59:38;;;;;;;;;;;29.00;46.30;;;;;;5115933;27;19913;-53
2022/06/20 13:02:19;;;;;;;;;;;28.40;48.30;;;;;;5120982;27;19915;-53
2022/06/20 13:05:12;;;;;;;;;;;28.40;49.80;;;;;;5102280;27;19926;-53
2022/06/20 13:08:18;;;;;;;;;;;28.60;49.40;;;;;;5123255;27;19916;-53
2022/06/20 13:11:04;;;;;;;;;;;28.90;49.00;;;;;;5117594;27;19923;-54
2022/06/20 13:14:02;;;;;;;;;;;29.30;48.50;;;;;;5122501;27;19919;-53
2022/06/20 13:16:46;;;;;;;;;;;30.00;47.80;;;;;;5154736;27;20087;-53
2022/06/20 13:19:33;;;;;;;;;;;30.40;45.80;;;;;;5102556;27;20138;-53
2022/06/20 13:22:17;;;;;;;;;;;30.30;46.40;;;;;;5124670;27;20113;-53
2022/06/20 13:25:12;;;;;;;;;;;29.70;47.10;;;;;;5082656;28;19912;-53
2022/06/20 13:27:56;;;;;;;;;;;29.20;48.00;;;;;;5102781;27;19918;-54
2022/06/20 13:30:46;;;;;;;;;;;28.70;49.10;;;;;;5107737;27;19912;-52
2022/06/20 13:33:32;;;;;;;;;;;28.50;49.40;;;;;;5124549;27;19911;-53
2022/06/20 13:36:19;;;;;;;;;;;28.60;51.10;;;;;;5123616;27;20397;-53
2022/06/20 13:39:04;;;;;;;;;;;28.80;49.60;;;;;;5101346;27;19930;-53
2022/06/20 13:41:49;;;;;;;;;;;27.90;51.20;;;;;;5089967;27;19920;-52
2022/06/20 13:44:33;;;;;;;;;;;27.50;53.00;;;;;;5120735;27;19912;-53
2022/06/20 13:47:17;;;;;;;;;;;27.10;53.30;;;;;;5122197;27;20274;-53
2022/06/20 13:50:05;;;;;;;;;;;26.50;53.80;;;;;;5114717;27;20153;-53
2022/06/20 13:52:50;;;;;;;;;;;26.00;56.20;;;;;;5124989;27;19912;-53
2022/06/20 13:55:35;;;;;;;;;;;25.70;58.60;;;;;;5124099;27;19949;-53
2022/06/20 13:58:19;;;;;;;;;;;25.70;60.20;;;;;;5103889;27;20425;-52
2022/06/20 14:01:03;;;;;;;;;;;25.90;60.00;;;;;;5124106;27;19912;-53
2022/06/20 14:03:47;;;;;;;;;;;25.80;62.20;;;;;;5124243;27;19922;-53
2022/06/20 14:06:28;;;;;;;;;;;25.70;66.20;;;;;;5123350;27;19925;-53
2022/06/20 14:09:15;;;;;;;;;;;25.80;71.80;;;;;;5121216;27;20300;-53
2022/06/20 14:11:56;;;;;;;;;;;25.80;68.80;;;;;;5124061;27;19916;-52
2022/06/20 14:14:38;;;;;;;;;;;26.30;67.50;;;;;;5103738;27;19930;-53
2022/06/20 14:17:20;;;;;;;;;;;26.50;63.90;;;;;;5102750;27;19912;-53
2022/06/20 14:20:02;;;;;;;;;;;26.50;61.40;;;;;;5123928;27;19911;-52
2022/06/20 14:22:57;;;;;;;;;;;26.40;61.30;;;;;;5103767;27;19926;-53
2022/06/20 14:25:42;;;;;;;;;;;26.40;62.80;;;;;;5103857;27;19930;-53
2022/06/20 14:28:24;;;;;;;;;;;26.50;63.30;;;;;;5124270;27;19912;-52
2022/06/20 14:31:06;;;;;;;;;;;25.80;65.90;;;;;;5124374;27;19911;-53
2022/06/20 14:33:47;;;;;;;;;;;25.20;72.30;;;;;;5124462;27;19934;-53
2022/06/20 14:36:30;;;;;;;;;;;24.80;87.70;;;;;;5123642;27;19912;-52
2022/06/20 14:39:12;;;;;;;;;;;24.40;97.20;;;;;;5100467;27;19954;-53
2022/06/20 14:41:56;;;;;;;;;;;24.10;99.90;;;;;;5124068;27;19930;-53
2022/06/20 14:44:40;;;;;;;;;;;23.60;99.90;;;;;;5103747;27;20075;-53
2022/06/20 14:47:28;;;;;;;;;;;23.30;99.90;;;;;;5123410;27;19926;-53
2022/06/20 14:50:15;;;;;;;;;;;23.00;99.90;;;;;;5092913;27;19966;-52
2022/06/20 14:52:57;;;;;;;;;;;22.90;99.90;;;;;;5124524;27;19926;-53
2022/06/20 14:55:40;;;;;;;;;;;23.10;99.90;;;;;;5124001;27;19912;-53
2022/06/20 14:58:23;;;;;;;;;;;23.10;99.90;;;;;;5161907;27;20218;-52
2022/06/20 15:01:05;;;;;;;;;;;23.20;99.90;;;;;;5103805;27;20320;-53
2022/06/20 15:03:47;;;;;;;;;;;23.30;99.90;;;;;;5124314;27;19911;-53
2022/06/20 15:06:29;;;;;;;;;;;23.20;99.90;;;;;;5103255;27;19930;-53
2022/06/20 15:09:17;;;;;;;;;;;23.10;99.90;;;;;;5120921;27;19966;-52
2022/06/20 15:12:07;;;;;;;;;;;23.30;99.90;;;;;;5124576;27;19926;-53
2022/06/20 15:14:53;;;;;;;;;;;23.50;99.90;;;;;;5118176;27;19920;-53
2022/06/20 15:17:42;;;;;;;;;;;23.90;99.90;;;;;;5099554;27;19926;-53
2022/06/20 15:20:24;;;;;;;;;;;24.30;99.90;;;;;;5109639;27;19912;-53
2022/06/20 15:23:06;;;;;;;;;;;25.00;99.90;;;;;;5123171;27;19916;-53
2022/06/20 15:25:49;;;;;;;;;;;25.40;99.90;;;;;;5123052;27;20348;-53
2022/06/20 15:28:31;;;;;;;;;;;25.90;98.70;;;;;;5103944;27;20006;-54
2022/06/20 15:31:27;;;;;;;;;;;26.70;91.30;;;;;;5124063;27;19912;-53
2022/06/20 15:34:27;;;;;;;;;;;27.20;79.70;;;;;;5124020;27;20327;-53
2022/06/20 15:37:17;;;;;;;;;;;26.50;81.90;;;;;;5123548;27;19912;-53
2022/06/20 15:40:00;;;;;;;;;;;25.40;91.00;;;;;;5114236;27;19916;-53
2022/06/20 15:42:42;;;;;;;;;;;24.80;96.50;;;;;;5124340;27;19918;-53
2022/06/20 15:45:27;;;;;;;;;;;24.20;99.90;;;;;;5096806;27;20320;-53
2022/06/20 15:48:11;;;;;;;;;;;24.10;99.90;;;;;;5121441;27;19929;-52
2022/06/20 15:50:56;;;;;;;;;;;24.50;99.90;;;;;;5121603;27;20375;-53
2022/06/20 15:53:52;;;;;;;;;;;24.60;99.90;;;;;;5122037;27;19915;-53
2022/06/20 15:56:38;;;;;;;;;;;24.30;99.90;;;;;;5121491;27;19922;-52
2022/06/20 15:59:25;;;;;;;;;;;24.20;99.90;;;;;;5097422;27;19934;-53
2022/06/20 16:02:17;;;;;;;;;;;23.90;99.90;;;;;;5148027;27;19911;-53
2022/06/20 16:05:04;;;;;;;;;;;23.70;99.90;;;;;;5123949;27;19919;-53
2022/06/20 16:07:46;;;;;;;;;;;23.60;99.90;;;;;;5122329;27;20368;-53
2022/06/20 16:10:37;;;;;;;;;;;23.40;99.90;;;;;;5106480;27;19916;-53
2022/06/20 16:13:20;;;;;;;;;;;23.50;99.90;;;;;;5120528;27;19916;-53
2022/06/20 16:16:07;;;;;;;;;;;23.60;99.90;;;;;;5100837;27;19928;-53
2022/06/20 16:18:48;;;;;;;;;;;23.30;99.90;;;;;;5101845;27;20323;-52
2022/06/20 16:21:31;;;;;;;;;;;23.00;99.90;;;;;;5122659;27;19953;-53
2022/06/20 16:24:18;;;;;;;;;;;23.10;99.90;;;;;;5124323;27;19912;-53
2022/06/20 16:26:58;;;;;;;;;;;23.20;99.90;;;;;;5122300;27;19928;-53
2022/06/20 16:29:49;;;;;;;;;;;23.10;99.90;;;;;;5114297;27;19918;-54
2022/06/20 16:32:34;;;;;;;;;;;23.40;99.90;;;;;;5122778;27;19957;-53
2022/06/20 16:35:21;;;;;;;;;;;24.70;96.70;;;;;;5123462;27;19922;-53